Terminal Aerodrome Forecast
Issued by NWS

Home | Current Version | Previous Version | Graphics & Text | Print | Product List | Glossary On
Versions: 1 2 3 4 5 6 7 8 9 10 11 12 13 14 15 16 17 18 19 20 21 22 23 24 25 26 27 28 29 30 31 32
000
FTUS45 KGGW 221723 AAB
TAFOLF
TAF AMD
KOLF 221723Z 2217/2318 29020G30KT P6SM FEW080
     FM222000 30028G37KT P6SM BKN070
     FM230000 32023G31KT P6SM VCSH OVC050
     FM230600 31012KT P6SM BKN045
     FM230700 30011KT P6SM SCT060
     FM231500 31015G23KT P6SM FEW070=

USA.gov is the U.S. government's official web portal to all federal, state and local government web resources and services.